createdAt,value
2022-10-24T00:00:58.559Z,87.51
2022-10-24T00:02:09.507Z,87.59
2022-10-24T00:03:11.707Z,87.60
2022-10-24T00:04:14.291Z,87.59
2022-10-24T00:05:15.960Z,87.62
2022-10-24T00:06:19.615Z,87.67
2022-10-24T00:07:21.167Z,87.91
2022-10-24T00:08:25.049Z,87.74
2022-10-24T00:09:26.760Z,87.73
2022-10-24T00:10:29.364Z,87.88
2022-10-24T00:11:30.958Z,87.88
2022-10-24T00:12:34.108Z,87.77
2022-10-24T00:13:35.684Z,87.83
2022-10-24T00:14:38.844Z,87.72
2022-10-24T00:15:44.883Z,87.84
2022-10-24T00:16:47.408Z,87.79
2022-10-24T00:17:49.086Z,87.89
2022-10-24T00:18:51.611Z,87.96
2022-10-24T00:19:54.199Z,87.90
2022-10-24T00:20:56.965Z,87.89
2022-10-24T00:21:58.610Z,87.95
2022-10-24T00:23:01.106Z,88.00
2022-10-24T00:24:04.659Z,87.78
2022-10-24T00:25:08.270Z,88.02
2022-10-24T00:26:11.037Z,87.97
2022-10-24T00:27:13.556Z,88.01
2022-10-24T00:28:15.333Z,88.13
2022-10-24T00:29:17.935Z,88.12
2022-10-24T00:30:19.649Z,88.08
2022-10-24T00:31:22.757Z,88.10
2022-10-24T00:32:24.754Z,88.15
2022-10-24T00:33:27.717Z,87.99
2022-10-24T00:34:29.273Z,87.95
2022-10-24T00:35:31.806Z,88.21
2022-10-24T00:36:33.414Z,88.07
2022-10-24T00:37:36.184Z,88.32
2022-10-24T00:38:37.735Z,88.32
2022-10-24T00:39:41.562Z,88.28
2022-10-24T00:40:43.520Z,88.37
2022-10-24T00:41:46.211Z,88.37
2022-10-24T00:42:48.716Z,88.38
2022-10-24T00:43:51.317Z,88.41
2022-10-24T00:44:53.613Z,88.36
2022-10-24T00:45:57.111Z,88.34
2022-10-24T00:47:03.013Z,88.36
2022-10-24T00:48:13.759Z,88.27
2022-10-24T00:49:17.816Z,88.56
2022-10-24T00:50:20.402Z,88.22
2022-10-24T00:51:25.547Z,88.39
2022-10-24T00:52:32.204Z,88.25
2022-10-24T00:53:38.230Z,88.26
2022-10-24T00:54:43.492Z,88.15
2022-10-24T00:55:49.729Z,88.13
2022-10-24T00:57:01.199Z,88.02
2022-10-24T00:58:05.220Z,87.90
2022-10-24T00:59:11.717Z,87.93
2022-10-24T01:00:17.187Z,87.89
2022-10-24T01:01:19.163Z,87.74
2022-10-24T01:02:22.123Z,87.71
2022-10-24T01:03:23.657Z,87.65
2022-10-24T01:04:26.142Z,87.53
2022-10-24T01:05:36.269Z,87.54
2022-10-24T01:06:47.492Z,87.43
2022-10-24T01:07:58.438Z,87.39
2022-10-24T01:09:09.921Z,87.22
2022-10-24T01:10:32.598Z,87.33
2022-10-24T01:11:48.852Z,87.29
2022-10-24T01:13:02.698Z,87.08
2022-10-24T01:14:14.145Z,87.27
2022-10-24T01:15:22.186Z,87.20
2022-10-24T01:16:30.835Z,87.12
2022-10-24T01:17:39.337Z,87.13
2022-10-24T01:18:49.792Z,87.07
2022-10-24T01:20:25.429Z,87.11
2022-10-24T01:21:32.893Z,86.81
2022-10-24T01:22:47.736Z,87.04
2022-10-24T01:24:24.235Z,87.01
2022-10-24T01:25:39.024Z,86.97
2022-10-24T01:27:00.484Z,86.89
2022-10-24T01:28:07.889Z,86.87
2022-10-24T01:29:19.185Z,86.85
2022-10-24T01:30:22.208Z,86.76
2022-10-24T01:31:31.007Z,86.89
2022-10-24T01:32:42.524Z,86.87
2022-10-24T01:33:52.796Z,86.92
2022-10-24T01:35:00.014Z,86.84
2022-10-24T01:36:09.287Z,86.90
2022-10-24T01:37:18.055Z,86.74
2022-10-24T01:38:26.115Z,86.82
2022-10-24T01:39:33.981Z,86.75
2022-10-24T01:40:42.301Z,86.91
2022-10-24T01:41:45.340Z,87.01
2022-10-24T01:42:50.363Z,87.01
2022-10-24T01:43:56.497Z,86.92
2022-10-24T01:45:02.389Z,86.75
2022-10-24T01:46:10.928Z,86.96
2022-10-24T01:47:19.140Z,86.81
2022-10-24T01:48:24.340Z,87.11
2022-10-24T01:49:32.288Z,87.00
2022-10-24T01:50:36.509Z,87.08
2022-10-24T01:51:41.568Z,87.02
2022-10-24T01:52:46.173Z,86.91
2022-10-24T01:53:50.074Z,87.07
2022-10-24T01:54:51.959Z,87.18
2022-10-24T01:55:55.324Z,87.08
2022-10-24T01:56:56.847Z,87.08
2022-10-24T01:57:59.696Z,87.13
2022-10-24T01:59:05.974Z,87.15
2022-10-24T02:00:10.567Z,87.07
2022-10-24T02:01:18.183Z,87.13
2022-10-24T02:02:24.759Z,87.19
2022-10-24T02:03:32.526Z,87.09
2022-10-24T02:04:41.589Z,87.10
2022-10-24T02:05:48.910Z,87.13
2022-10-24T02:06:51.178Z,87.05
2022-10-24T02:07:57.858Z,87.04
2022-10-24T02:10:13.376Z,87.24
2022-10-24T02:11:14.954Z,87.14
2022-10-24T02:12:19.394Z,87.32
2022-10-24T02:13:27.294Z,87.17
2022-10-24T02:14:36.018Z,87.24
2022-10-24T02:15:42.381Z,86.99
2022-10-24T02:16:47.156Z,87.29
2022-10-24T02:17:48.715Z,87.14
2022-10-24T02:18:53.997Z,87.08
2022-10-24T02:19:56.014Z,87.23
2022-10-24T02:21:07.968Z,87.08
2022-10-24T02:22:18.706Z,87.12
2022-10-24T02:23:27.317Z,87.01
2022-10-24T02:24:33.042Z,86.98
2022-10-24T02:25:38.481Z,86.91
2022-10-24T02:26:48.768Z,86.92
2022-10-24T02:27:54.344Z,87.05
2022-10-24T02:29:01.633Z,86.94
2022-10-24T02:30:09.114Z,86.78
2022-10-24T02:31:16.264Z,86.78
2022-10-24T02:32:24.358Z,86.69
2022-10-24T02:33:27.374Z,86.65
2022-10-24T02:34:32.916Z,86.66
2022-10-24T02:35:36.931Z,86.50
2022-10-24T02:36:42.257Z,86.47
2022-10-24T02:37:47.459Z,86.48
2022-10-24T02:38:53.519Z,86.35
2022-10-24T02:39:57.373Z,86.33
2022-10-24T02:41:03.181Z,86.25
2022-10-24T02:42:07.045Z,86.38
2022-10-24T02:43:11.697Z,86.25
2022-10-24T02:44:16.752Z,86.21
2022-10-24T02:45:20.541Z,86.21
2022-10-24T02:46:27.153Z,86.17
2022-10-24T02:47:32.773Z,86.18
2022-10-24T02:48:40.818Z,86.26
2022-10-24T02:49:43.978Z,86.25
2022-10-24T02:50:47.419Z,85.85
2022-10-24T02:51:49.782Z,85.97
2022-10-24T02:52:52.534Z,85.85
2022-10-24T02:53:54.077Z,85.81
2022-10-24T02:54:56.716Z,85.79
2022-10-24T02:55:58.331Z,85.81
2022-10-24T02:57:03.083Z,85.75
2022-10-24T02:58:04.760Z,85.79
2022-10-24T02:59:07.220Z,85.76
2022-10-24T03:00:10.132Z,85.76
2022-10-24T03:01:14.327Z,85.67
2022-10-24T03:02:16.087Z,85.68
2022-10-24T03:03:19.931Z,85.64
2022-10-24T03:04:22.258Z,85.54
2022-10-24T03:05:24.851Z,85.54
2022-10-24T03:06:26.555Z,85.46
2022-10-24T03:08:35.503Z,85.24
2022-10-24T03:09:38.238Z,85.33
2022-10-24T03:10:40.079Z,85.29
2022-10-24T03:11:42.563Z,85.08
2022-10-24T03:12:44.962Z,85.23
2022-10-24T03:13:48.250Z,85.21
2022-10-24T03:14:49.831Z,85.33
2022-10-24T03:15:52.339Z,85.17
2022-10-24T03:16:54.016Z,85.25
2022-10-24T03:17:56.543Z,85.03
2022-10-24T03:18:59.403Z,85.11
2022-10-24T03:20:01.861Z,85.07
2022-10-24T03:21:03.529Z,85.05
2022-10-24T03:22:06.285Z,85.09
2022-10-24T03:23:07.895Z,84.76
2022-10-24T03:24:10.631Z,85.01
2022-10-24T03:25:12.302Z,84.83
2022-10-24T03:26:14.840Z,84.88
2022-10-24T03:27:16.431Z,84.83
2022-10-24T03:28:18.973Z,84.91
2022-10-24T03:29:20.515Z,84.70
2022-10-24T03:30:23.262Z,84.62
2022-10-24T03:31:28.103Z,84.54
2022-10-24T03:32:30.879Z,84.54
2022-10-24T03:33:32.690Z,84.55
2022-10-24T03:34:36.669Z,84.53
2022-10-24T03:35:38.388Z,84.34
2022-10-24T03:36:41.188Z,84.42
2022-10-24T03:37:43.096Z,84.28
2022-10-24T03:38:45.713Z,84.15
2022-10-24T03:39:47.358Z,84.11
2022-10-24T03:40:50.128Z,83.92
2022-10-24T03:41:51.776Z,83.92
2022-10-24T03:42:54.429Z,83.70
2022-10-24T03:43:56.855Z,83.78
2022-10-24T03:44:59.527Z,83.68
2022-10-24T03:46:02.077Z,83.62
2022-10-24T03:47:04.598Z,83.58
2022-10-24T03:48:14.187Z,83.75
2022-10-24T03:49:16.682Z,83.40
2022-10-24T03:50:19.764Z,83.16
2022-10-24T03:51:22.574Z,83.23
2022-10-24T03:52:24.158Z,83.03
2022-10-24T03:53:26.685Z,82.94
2022-10-24T03:54:28.263Z,82.87
2022-10-24T03:55:31.041Z,82.93
2022-10-24T03:56:32.610Z,82.53
2022-10-24T03:57:35.157Z,82.56
2022-10-24T03:58:36.707Z,82.57
2022-10-24T03:59:39.411Z,82.54
2022-10-24T04:00:43.799Z,82.46
2022-10-24T04:01:46.522Z,82.40
2022-10-24T04:02:50.490Z,82.28
2022-10-24T04:03:53.144Z,82.21
2022-10-24T04:04:54.748Z,82.21
2022-10-24T04:05:59.275Z,81.93
2022-10-24T04:07:00.855Z,82.08
2022-10-24T04:08:04.137Z,82.19
2022-10-24T04:09:05.670Z,81.90
2022-10-24T04:10:08.866Z,82.02
2022-10-24T04:11:10.431Z,81.94
2022-10-24T04:12:13.001Z,81.94
2022-10-24T04:13:14.587Z,82.03
2022-10-24T04:14:17.143Z,81.91
2022-10-24T04:15:18.913Z,81.93
2022-10-24T04:16:23.923Z,81.98
2022-10-24T04:17:25.692Z,81.92
2022-10-24T04:18:28.419Z,81.83
2022-10-24T04:19:30.046Z,81.88
2022-10-24T04:20:32.648Z,81.87
2022-10-24T04:21:35.545Z,81.84
2022-10-24T04:22:38.404Z,82.12
2022-10-24T04:23:41.117Z,81.98
2022-10-24T04:24:43.667Z,81.97
2022-10-24T04:25:45.882Z,82.13
2022-10-24T04:26:48.550Z,82.38
2022-10-24T04:27:50.150Z,82.24
2022-10-24T04:28:52.721Z,82.12
2022-10-24T04:29:54.245Z,82.29
2022-10-24T04:30:57.247Z,82.23
2022-10-24T04:31:58.932Z,82.47
2022-10-24T04:33:01.592Z,82.32
2022-10-24T04:34:05.112Z,82.69
2022-10-24T04:35:08.609Z,82.64
2022-10-24T04:36:10.188Z,82.69
2022-10-24T04:37:14.127Z,82.77
2022-10-24T04:38:15.765Z,82.77
2022-10-24T04:39:19.580Z,82.91
2022-10-24T04:40:21.276Z,82.79
2022-10-24T04:41:23.997Z,82.74
2022-10-24T04:42:25.807Z,82.85
2022-10-24T04:43:28.828Z,82.90
2022-10-24T04:44:30.544Z,82.84
2022-10-24T04:45:33.114Z,82.75
2022-10-24T04:46:34.948Z,82.88
2022-10-24T04:47:38.170Z,82.72
2022-10-24T04:48:40.917Z,82.78
2022-10-24T04:49:43.902Z,82.91
2022-10-24T04:50:46.971Z,82.76
2022-10-24T04:51:49.490Z,82.87
2022-10-24T04:52:52.502Z,82.85
2022-10-24T04:53:55.187Z,82.96
2022-10-24T04:54:56.733Z,82.81
2022-10-24T04:55:59.255Z,82.80
2022-10-24T04:57:00.885Z,82.67
2022-10-24T04:58:03.792Z,82.79
2022-10-24T04:59:05.556Z,82.83
2022-10-24T05:00:09.451Z,83.03
2022-10-24T05:01:13.672Z,82.83
2022-10-24T05:02:16.387Z,82.81
2022-10-24T05:03:20.178Z,82.91
2022-10-24T05:04:22.007Z,82.71
2022-10-24T05:05:24.941Z,82.58
2022-10-24T05:06:26.658Z,82.52
2022-10-24T05:07:29.123Z,82.38
2022-10-24T05:08:32.142Z,82.47
2022-10-24T05:09:34.793Z,82.28
2022-10-24T05:10:36.562Z,82.36
2022-10-24T05:11:39.070Z,82.34
2022-10-24T05:12:41.828Z,82.29
2022-10-24T05:13:49.889Z,82.15
2022-10-24T05:14:52.375Z,82.12
2022-10-24T05:15:53.954Z,82.08
2022-10-24T05:16:56.667Z,81.90
2022-10-24T05:17:58.850Z,81.92
2022-10-24T05:19:01.393Z,81.90
2022-10-24T05:20:05.935Z,81.75
2022-10-24T05:21:08.442Z,81.92
2022-10-24T05:22:10.960Z,81.82
2022-10-24T05:23:13.719Z,81.57
2022-10-24T05:24:16.974Z,81.63
2022-10-24T05:25:20.228Z,81.52
2022-10-24T05:26:21.799Z,81.23
2022-10-24T05:27:25.337Z,81.37
2022-10-24T05:28:27.976Z,81.19
2022-10-24T05:29:30.493Z,81.21
2022-10-24T05:30:32.138Z,81.27
2022-10-24T05:31:35.011Z,81.05
2022-10-24T05:32:39.507Z,81.14
2022-10-24T05:33:42.387Z,80.92
2022-10-24T05:34:44.007Z,80.94
2022-10-24T05:35:46.653Z,80.75
2022-10-24T05:36:48.246Z,80.76
2022-10-24T05:37:50.794Z,80.69
2022-10-24T05:38:52.341Z,80.62
2022-10-24T05:39:56.236Z,80.42
2022-10-24T05:40:57.747Z,80.70
2022-10-24T05:42:00.257Z,80.48
2022-10-24T05:43:01.940Z,80.33
2022-10-24T05:44:04.775Z,80.34
2022-10-24T05:45:07.835Z,80.36
2022-10-24T05:46:11.163Z,80.43
2022-10-24T05:47:12.846Z,80.20
2022-10-24T05:48:15.615Z,80.40
2022-10-24T05:49:17.136Z,80.07
2022-10-24T05:50:19.805Z,80.15
2022-10-24T05:51:22.098Z,80.03
2022-10-24T05:52:24.808Z,80.02
2022-10-24T05:53:27.064Z,79.89
2022-10-24T05:54:37.634Z,79.89
2022-10-24T05:55:53.632Z,79.76
2022-10-24T05:56:55.181Z,79.60
2022-10-24T05:57:58.064Z,79.74
2022-10-24T05:58:59.752Z,79.60
2022-10-24T06:00:02.734Z,79.39
2022-10-24T06:01:05.579Z,79.39
2022-10-24T06:02:08.371Z,79.61
2022-10-24T06:03:11.282Z,79.50
2022-10-24T06:04:14.041Z,79.34
2022-10-24T06:05:15.885Z,79.45
2022-10-24T06:06:18.379Z,79.45
2022-10-24T06:07:19.935Z,79.14
2022-10-24T06:08:22.637Z,79.49
2022-10-24T06:09:24.418Z,79.39
2022-10-24T06:10:26.916Z,79.26
2022-10-24T06:11:30.060Z,79.17
2022-10-24T06:12:32.872Z,79.12
2022-10-24T06:13:36.215Z,79.12
2022-10-24T06:14:41.247Z,79.34
2022-10-24T06:15:43.507Z,79.07
2022-10-24T06:16:46.188Z,79.11
2022-10-24T06:17:47.789Z,78.93
2022-10-24T06:18:50.374Z,78.79
2022-10-24T06:19:51.940Z,79.00
2022-10-24T06:20:56.151Z,79.06
2022-10-24T06:21:57.858Z,78.72
2022-10-24T06:23:00.386Z,78.83
2022-10-24T06:24:02.857Z,78.74
2022-10-24T06:25:05.164Z,78.71
2022-10-24T06:26:11.540Z,78.71
2022-10-24T06:27:15.656Z,78.74
2022-10-24T06:28:17.192Z,78.63
2022-10-24T06:29:19.746Z,78.57
2022-10-24T06:30:21.271Z,78.36
2022-10-24T06:31:25.633Z,78.68
2022-10-24T06:32:27.177Z,78.42
2022-10-24T06:33:29.886Z,78.17
2022-10-24T06:34:31.582Z,78.32
2022-10-24T06:35:34.106Z,78.28
2022-10-24T06:36:36.844Z,78.16
2022-10-24T06:37:40.945Z,78.30
2022-10-24T06:38:44.577Z,78.06
2022-10-24T06:39:47.038Z,77.88
2022-10-24T06:40:48.549Z,77.89
2022-10-24T06:41:51.037Z,77.78
2022-10-24T06:42:53.936Z,77.68
2022-10-24T06:43:57.039Z,77.67
2022-10-24T06:46:07.636Z,77.54
2022-10-24T06:47:10.239Z,77.42
2022-10-24T06:48:12.023Z,77.49
2022-10-24T06:49:15.226Z,77.24
2022-10-24T06:50:17.272Z,77.22
2022-10-24T06:51:19.898Z,77.12
2022-10-24T06:52:22.480Z,77.03
2022-10-24T06:53:24.029Z,76.92
2022-10-24T06:54:29.400Z,76.92
2022-10-24T06:55:32.040Z,76.78
2022-10-24T06:56:34.730Z,76.60
2022-10-24T06:57:36.426Z,76.54
2022-10-24T06:58:40.236Z,76.49
2022-10-24T06:59:41.797Z,76.35
2022-10-24T07:00:44.416Z,76.34
2022-10-24T07:01:46.822Z,76.25
2022-10-24T07:02:49.473Z,76.03
2022-10-24T07:03:52.092Z,76.01
2022-10-24T07:04:54.601Z,75.95
2022-10-24T07:05:56.154Z,75.96
2022-10-24T07:06:58.827Z,76.02
2022-10-24T07:08:01.891Z,75.89
2022-10-24T07:09:04.949Z,75.77
2022-10-24T07:10:08.863Z,75.81
2022-10-24T07:11:10.559Z,75.69
2022-10-24T07:12:13.403Z,75.64
2022-10-24T07:13:16.849Z,75.72
2022-10-24T07:14:20.645Z,75.56
2022-10-24T07:15:23.149Z,75.49
2022-10-24T07:16:25.433Z,75.86
2022-10-24T07:17:29.296Z,75.46
2022-10-24T07:18:30.895Z,75.57
2022-10-24T07:19:37.208Z,75.48
2022-10-24T07:21:41.480Z,75.38
2022-10-24T07:22:45.399Z,75.39
2022-10-24T07:23:48.405Z,75.44
2022-10-24T07:24:53.213Z,75.44
2022-10-24T07:25:55.744Z,75.43
2022-10-24T07:27:00.588Z,75.38
2022-10-24T07:28:02.177Z,75.48
2022-10-24T07:29:04.855Z,75.41
2022-10-24T07:30:09.586Z,75.47
2022-10-24T07:31:13.479Z,75.51
2022-10-24T07:32:15.088Z,75.53
2022-10-24T07:33:19.259Z,75.52
2022-10-24T07:34:21.927Z,75.50
2022-10-24T07:35:23.699Z,75.39
2022-10-24T07:36:27.727Z,75.37
2022-10-24T07:37:29.322Z,75.39
2022-10-24T07:38:31.829Z,75.18
2022-10-24T07:39:33.410Z,75.19
2022-10-24T07:40:36.334Z,75.19
2022-10-24T07:41:41.561Z,75.21
2022-10-24T07:42:43.177Z,75.08
2022-10-24T07:43:46.206Z,75.10
2022-10-24T07:44:47.906Z,74.98
2022-10-24T07:45:52.382Z,74.96
2022-10-24T07:46:54.334Z,74.81
2022-10-24T07:47:57.909Z,74.78
2022-10-24T07:49:00.529Z,74.81
2022-10-24T07:50:02.384Z,74.54
2022-10-24T07:51:07.577Z,74.49
2022-10-24T07:52:10.143Z,74.43
2022-10-24T07:53:13.551Z,74.39
2022-10-24T07:54:15.273Z,74.28
2022-10-24T07:55:17.973Z,74.24
2022-10-24T07:56:19.576Z,74.17
2022-10-24T07:57:22.592Z,73.99
2022-10-24T07:58:24.342Z,73.96
2022-10-24T07:59:41.233Z,74.03
2022-10-24T08:00:45.687Z,74.08
2022-10-24T08:01:49.679Z,73.76
2022-10-24T08:02:52.487Z,73.69
2022-10-24T08:03:54.049Z,73.63
2022-10-24T08:04:56.735Z,73.56
2022-10-24T08:05:59.372Z,73.58
2022-10-24T08:07:01.840Z,73.45
2022-10-24T08:08:27.606Z,73.33
2022-10-24T08:09:27.425Z,73.43
2022-10-24T08:10:29.908Z,73.29
2022-10-24T08:11:34.073Z,73.35
2022-10-24T08:12:37.133Z,73.27
2022-10-24T08:13:41.015Z,72.97
2022-10-24T08:14:44.225Z,72.99
2022-10-24T08:15:46.703Z,72.84
2022-10-24T08:16:50.544Z,72.71
2022-10-24T08:17:52.045Z,72.50
2022-10-24T08:18:56.509Z,72.50
2022-10-24T08:19:58.973Z,72.24
2022-10-24T08:21:03.281Z,72.16
2022-10-24T08:22:05.871Z,72.11
2022-10-24T08:23:08.495Z,71.81
2022-10-24T08:24:11.302Z,71.57
2022-10-24T08:25:14.382Z,71.27
2022-10-24T08:26:17.912Z,71.27
2022-10-24T08:27:20.377Z,71.21
2022-10-24T08:28:23.514Z,71.00
2022-10-24T08:29:26.299Z,70.89
2022-10-24T08:30:28.947Z,70.80
2022-10-24T08:31:30.518Z,70.50
2022-10-24T08:32:34.449Z,70.40
2022-10-24T08:33:36.157Z,70.26
2022-10-24T08:34:40.505Z,70.25
2022-10-24T08:35:47.244Z,70.17
2022-10-24T08:36:50.990Z,70.01
2022-10-24T08:37:53.534Z,70.03
2022-10-24T08:38:56.519Z,69.82
2022-10-24T08:39:59.023Z,69.70
2022-10-24T08:41:00.880Z,69.63
2022-10-24T08:42:06.207Z,69.48
2022-10-24T08:43:09.930Z,69.37
2022-10-24T08:44:20.941Z,69.37
2022-10-24T08:45:31.004Z,69.36
2022-10-24T08:46:48.800Z,69.36
2022-10-24T08:47:59.430Z,69.48
2022-10-24T08:49:06.059Z,69.53
2022-10-24T08:50:17.515Z,69.30
2022-10-24T08:51:30.733Z,69.15
2022-10-24T08:52:36.780Z,69.09
2022-10-24T08:53:39.921Z,69.21
2022-10-24T08:54:45.552Z,69.15
2022-10-24T08:55:50.482Z,69.07
2022-10-24T08:56:57.848Z,68.87
2022-10-24T08:58:02.245Z,68.82
2022-10-24T08:59:05.402Z,68.67
2022-10-24T09:00:17.592Z,68.47
2022-10-24T09:01:29.629Z,68.83
2022-10-24T09:02:37.867Z,68.41
2022-10-24T09:04:00.795Z,68.71
2022-10-24T09:05:15.321Z,68.38
2022-10-24T09:06:19.137Z,68.69
2022-10-24T09:08:33.483Z,68.42
2022-10-24T09:09:40.358Z,68.31
2022-10-24T09:10:49.002Z,68.37
2022-10-24T09:11:55.336Z,68.01
2022-10-24T09:12:57.472Z,67.95
2022-10-24T09:14:03.018Z,67.92
2022-10-24T09:15:14.896Z,68.12
2022-10-24T09:16:21.746Z,68.00
2022-10-24T09:17:26.040Z,68.15
2022-10-24T09:18:32.540Z,68.03
2022-10-24T09:19:36.523Z,68.02
2022-10-24T09:20:39.591Z,67.98
2022-10-24T09:21:42.333Z,68.02
2022-10-24T09:22:45.760Z,67.69
2022-10-24T09:23:50.393Z,67.70
2022-10-24T09:24:57.435Z,67.55
2022-10-24T09:25:59.129Z,67.65
2022-10-24T09:27:04.348Z,67.58
2022-10-24T09:28:07.427Z,67.74
2022-10-24T09:29:09.298Z,67.78
2022-10-24T09:30:18.371Z,67.79
2022-10-24T09:31:22.226Z,67.77
2022-10-24T09:32:27.695Z,67.48
2022-10-24T09:33:33.528Z,67.48
2022-10-24T09:34:37.345Z,67.68
2022-10-24T09:35:40.817Z,67.52
2022-10-24T09:36:43.654Z,67.48
2022-10-24T09:37:48.974Z,67.76
2022-10-24T09:38:51.822Z,67.38
2022-10-24T09:40:07.212Z,67.45
2022-10-24T09:41:22.074Z,67.48
2022-10-24T09:42:24.135Z,67.58
2022-10-24T09:43:34.851Z,67.56
2022-10-24T09:44:39.131Z,67.44
2022-10-24T09:45:44.415Z,67.65
2022-10-24T09:46:47.874Z,67.26
2022-10-24T09:47:55.415Z,67.40
2022-10-24T09:49:00.087Z,67.20
2022-10-24T09:50:06.503Z,67.55
2022-10-24T09:51:09.719Z,67.51
2022-10-24T09:52:20.474Z,67.32
2022-10-24T09:53:25.949Z,67.48
2022-10-24T09:54:30.769Z,67.27
2022-10-24T09:55:34.260Z,67.21
2022-10-24T09:56:39.941Z,67.16
2022-10-24T09:57:41.558Z,67.15
2022-10-24T09:58:44.260Z,67.02
2022-10-24T09:59:48.045Z,67.17
2022-10-24T10:00:59.645Z,67.19
2022-10-24T10:02:25.988Z,67.30
2022-10-24T10:03:28.605Z,67.35
2022-10-24T10:04:31.085Z,67.07
2022-10-24T10:05:47.753Z,67.23
2022-10-24T10:06:50.667Z,67.22
2022-10-24T10:07:53.474Z,67.12
2022-10-24T10:08:57.716Z,67.32
2022-10-24T10:10:04.578Z,66.97
2022-10-24T10:11:09.825Z,67.11
2022-10-24T10:12:26.180Z,67.23
2022-10-24T10:13:30.580Z,67.21
2022-10-24T10:14:33.282Z,67.19
2022-10-24T10:15:38.183Z,66.97
2022-10-24T10:16:40.724Z,67.39
2022-10-24T10:17:49.820Z,67.06
2022-10-24T10:19:01.234Z,67.22
2022-10-24T10:20:03.670Z,67.43
2022-10-24T10:21:12.177Z,67.40
2022-10-24T10:22:24.862Z,67.54
2022-10-24T10:23:29.384Z,67.68
2022-10-24T10:24:39.776Z,67.46
2022-10-24T10:25:41.337Z,67.99
2022-10-24T10:26:45.632Z,67.77
2022-10-24T10:27:51.973Z,67.51
2022-10-24T10:28:58.828Z,67.49
2022-10-24T10:30:19.611Z,67.67
2022-10-24T10:31:23.697Z,67.79
2022-10-24T10:32:33.678Z,67.97
2022-10-24T10:33:46.724Z,67.84
2022-10-24T10:35:01.932Z,67.99
2022-10-24T10:36:14.903Z,68.06
2022-10-24T10:37:29.901Z,68.10
2022-10-24T10:38:43.761Z,67.84
2022-10-24T10:40:14.880Z,67.94
2022-10-24T10:41:32.489Z,67.96
2022-10-24T10:42:39.752Z,68.20
2022-10-24T10:43:50.853Z,68.16
2022-10-24T10:45:03.665Z,68.32
2022-10-24T10:46:17.210Z,68.01
2022-10-24T10:47:34.876Z,67.74
2022-10-24T10:48:52.919Z,67.95
2022-10-24T10:49:58.620Z,67.94
2022-10-24T10:51:08.357Z,67.70
2022-10-24T10:52:19.399Z,67.81
2022-10-24T10:53:34.012Z,67.86
2022-10-24T10:54:55.092Z,67.89
2022-10-24T10:56:04.675Z,67.84
2022-10-24T10:57:12.458Z,67.55
2022-10-24T10:58:26.860Z,67.57
2022-10-24T10:59:42.763Z,67.75
2022-10-24T11:00:51.925Z,67.78
2022-10-24T11:02:01.201Z,67.42
2022-10-24T11:03:16.188Z,67.37
2022-10-24T11:04:34.356Z,67.22
2022-10-24T11:05:46.376Z,67.21
2022-10-24T11:08:20.609Z,67.07
2022-10-24T11:09:30.535Z,67.03
2022-10-24T11:10:37.403Z,67.18
2022-10-24T11:11:43.309Z,67.10
2022-10-24T11:12:47.379Z,66.89
2022-10-24T11:13:54.473Z,66.87
2022-10-24T11:15:03.334Z,66.80
2022-10-24T11:16:10.393Z,66.63
2022-10-24T11:17:17.871Z,66.31
2022-10-24T11:18:26.941Z,66.22
2022-10-24T11:19:36.017Z,66.47
2022-10-24T11:20:43.656Z,66.42
2022-10-24T11:21:45.489Z,66.51
2022-10-24T11:22:52.822Z,66.41
2022-10-24T11:24:00.262Z,66.46
2022-10-24T11:25:10.601Z,66.44
2022-10-24T11:26:20.207Z,66.36
2022-10-24T11:27:29.715Z,66.54
2022-10-24T11:28:37.173Z,66.48
2022-10-24T11:29:45.309Z,66.56
2022-10-24T11:30:52.772Z,66.85
2022-10-24T11:31:57.889Z,67.10
2022-10-24T11:33:04.068Z,66.78
2022-10-24T11:34:12.398Z,67.15
2022-10-24T11:35:24.918Z,66.96
2022-10-24T11:36:34.620Z,66.82
2022-10-24T11:37:39.883Z,67.12
2022-10-24T11:38:49.155Z,67.04
2022-10-24T11:39:58.002Z,66.82
2022-10-24T11:41:15.985Z,66.49
2022-10-24T11:42:28.062Z,66.58
2022-10-24T11:43:38.084Z,66.49
2022-10-24T11:44:48.095Z,66.51
2022-10-24T11:45:56.940Z,66.34
2022-10-24T11:47:11.049Z,66.66
2022-10-24T11:48:17.113Z,66.69
2022-10-24T11:49:24.419Z,66.30
2022-10-24T11:50:33.077Z,66.24
2022-10-24T11:51:38.900Z,66.35
2022-10-24T11:52:45.853Z,66.45
2022-10-24T11:53:54.152Z,66.70
2022-10-24T11:55:02.941Z,66.36
2022-10-24T11:56:12.333Z,66.55
2022-10-24T11:57:18.809Z,66.84
2022-10-24T11:58:26.448Z,66.75
2022-10-24T11:59:30.547Z,66.77
2022-10-24T12:00:37.759Z,66.95
2022-10-24T12:02:11.525Z,66.44
2022-10-24T12:03:36.224Z,66.94
2022-10-24T12:05:04.917Z,66.68
2022-10-24T12:06:21.117Z,66.97
2022-10-24T12:08:14.496Z,66.93
2022-10-24T12:09:39.066Z,66.91
2022-10-24T12:11:05.848Z,66.84
2022-10-24T12:12:21.786Z,66.88
2022-10-24T12:13:45.783Z,66.88
2022-10-24T12:15:16.086Z,66.90
2022-10-24T12:16:31.368Z,66.84
2022-10-24T12:18:01.374Z,66.96
2022-10-24T12:19:06.912Z,66.58
2022-10-24T12:20:15.925Z,66.78
2022-10-24T12:21:25.751Z,66.41
2022-10-24T12:22:36.043Z,66.72
2022-10-24T12:23:41.349Z,66.75
2022-10-24T12:24:43.474Z,66.69
2022-10-24T12:25:48.818Z,66.63
2022-10-24T12:27:02.558Z,66.17
2022-10-24T12:28:07.458Z,66.02
2022-10-24T12:29:24.703Z,65.89
2022-10-24T12:30:30.499Z,65.73
2022-10-24T12:31:34.033Z,65.76
2022-10-24T12:32:40.722Z,65.56
2022-10-24T12:33:44.084Z,65.21
2022-10-24T12:35:06.934Z,65.43
2022-10-24T12:36:58.143Z,65.37
2022-10-24T12:38:00.693Z,65.27
2022-10-24T12:39:04.755Z,65.65
2022-10-24T12:40:43.483Z,65.25
2022-10-24T12:41:46.053Z,65.37
2022-10-24T12:43:15.333Z,65.11
2022-10-24T12:44:52.805Z,65.13
2022-10-24T12:45:54.658Z,65.06
2022-10-24T12:46:57.224Z,64.94
2022-10-24T12:48:29.252Z,64.77
2022-10-24T12:49:33.852Z,65.08
2022-10-24T12:51:26.449Z,64.82
2022-10-24T12:52:49.843Z,65.23
2022-10-24T12:54:15.258Z,64.67
2022-10-24T12:55:32.730Z,64.95
2022-10-24T12:56:36.026Z,64.90
2022-10-24T12:57:45.755Z,64.53
2022-10-24T12:59:20.351Z,64.85
2022-10-24T13:00:24.827Z,64.97
2022-10-24T13:01:37.557Z,64.71
2022-10-24T13:03:04.045Z,64.72
2022-10-24T13:04:28.832Z,64.53
2022-10-24T13:05:50.006Z,64.70
2022-10-24T13:07:26.242Z,64.96
2022-10-24T13:08:45.356Z,64.27
2022-10-24T13:09:56.785Z,64.11
2022-10-24T13:11:11.568Z,64.49
2022-10-24T13:12:43.026Z,63.96
2022-10-24T13:14:06.013Z,64.20
2022-10-24T13:15:24.994Z,64.04
2022-10-24T13:16:37.207Z,64.10
2022-10-24T13:17:48.421Z,64.01
2022-10-24T13:19:03.774Z,63.86
2022-10-24T13:20:15.270Z,64.08
2022-10-24T13:21:25.283Z,64.06
2022-10-24T13:22:30.691Z,64.29
2022-10-24T13:23:33.302Z,64.02
2022-10-24T13:24:40.435Z,64.05
2022-10-24T13:25:44.682Z,63.90
2022-10-24T13:26:51.194Z,63.94
2022-10-24T13:28:35.907Z,63.71
2022-10-24T13:30:02.018Z,63.84
2022-10-24T13:31:44.573Z,63.98
2022-10-24T13:32:48.501Z,63.50
2022-10-24T13:33:53.092Z,63.81
2022-10-24T13:34:59.551Z,63.52
2022-10-24T13:36:16.274Z,63.73
2022-10-24T13:37:24.377Z,63.65
2022-10-24T13:38:26.549Z,63.50
2022-10-24T13:39:37.474Z,63.98
2022-10-24T13:40:45.430Z,64.00
2022-10-24T13:41:49.670Z,63.88
2022-10-24T13:42:55.058Z,63.55
2022-10-24T13:44:01.660Z,63.71
2022-10-24T13:45:07.805Z,63.61
2022-10-24T13:46:13.251Z,63.82
2022-10-24T13:47:21.022Z,63.76
2022-10-24T13:48:28.167Z,64.03
2022-10-24T13:49:33.747Z,64.45
2022-10-24T13:50:48.127Z,63.81
2022-10-24T13:51:52.764Z,64.38
2022-10-24T13:52:59.052Z,64.00
2022-10-24T13:54:06.784Z,63.93
2022-10-24T13:55:21.638Z,63.70
2022-10-24T13:56:23.548Z,64.21
2022-10-24T13:57:29.334Z,64.25
2022-10-24T13:58:42.092Z,64.17
2022-10-24T13:59:45.173Z,64.33
2022-10-24T14:00:55.682Z,64.43
2022-10-24T14:01:59.531Z,64.14
2022-10-24T14:03:05.096Z,64.51
2022-10-24T14:04:08.401Z,64.21
2022-10-24T14:05:21.612Z,63.77
2022-10-24T14:06:26.540Z,63.80
2022-10-24T14:07:33.530Z,63.94
2022-10-24T14:08:39.022Z,63.26
2022-10-24T14:09:42.896Z,63.34
2022-10-24T14:10:45.574Z,63.71
2022-10-24T14:11:48.539Z,63.72
2022-10-24T14:12:56.819Z,63.28
2022-10-24T14:14:04.264Z,63.58
2022-10-24T14:15:18.567Z,63.82
2022-10-24T14:16:24.284Z,63.67
2022-10-24T14:17:29.098Z,63.90
2022-10-24T14:18:30.889Z,63.90
2022-10-24T14:19:38.377Z,63.90
2022-10-24T14:20:42.596Z,64.01
2022-10-24T14:21:46.036Z,64.03